Aérodrome :
LOGIN :

S'inscrire | Disclaimer

   EN    FR    IT 

 










Légende :    VFR   VFR Marginal   IFR   IFR Intensif   IFR Très Intensif
Visi : 
Plafond : 
>= 8 km
>= 3000ft
5 à 8 km
1000 à 3000 ft
1500m à 5 km
500 à 1000 ft
800 à 1500m
200 à 500 ft
< 800m
< 200 ft
Symboles :   Orages  Brouillard  Fortes neiges  Fortes précipitations  Vent > 20 kt
SIGMETs :   Divers  Orages  Givrage  Turbulence  Onde Orograph.  Cendres Volcan.







- Altitude de l'aérodrome : 584 ft
- Voir les cartes d'approche


LFPV - Villacoublay Vélizy

DERNIER METAR :
  • 151130Z AUTO 22010KT 190V260 9999 BKN011 OVC016 05/03 Q0996 TEMPO 32015G25KT 4000 SHRA BKN012 BKN020TCU

METARs EXPIRÉS :
  • 151100Z AUTO 22010KT 9999 OVC012/// ///TCU 05/03 Q0996 TEMPO 32015G25KT 3000 TSRAGS BKN025CB
  • 151030Z AUTO 22010KT 190V260 9999 OVC012/// ///CB 05/03 Q0996 TEMPO 32015G25KT 3000 TSRAGS BKN025CB
  • 151000Z AUTO 23010KT 180V250 9999 BKN012/// BKN018/// BKN040/// ///CB 05/02 Q0996 TEMPO 32015G25KT 3000 TSRAGS BKN025CB
  • 150930Z AUTO 23010KT 9999 SCT011/// SCT090/// BKN180/// ///TCU 05/02 Q0996 TEMPO 32015G25KT 3000 TSRAGS BKN025CB
  • 150900Z AUTO 23010KT 9999 SCT010 SCT058 BKN180 04/02 Q0996 TEMPO 32015G25KT 4000 SHRA BKN020 SCT020CB SCT020

TAF AMD TAF LFPV
Valide du 15 à 10h jusqu'au 16 à 09h UTC


151047Z 1510/1609 22010KT 9999 BKN015 BKN022
TEMPO 1510/1516 32015G25KT 4000 SHRA BKN012 BKN020TCU
TEMPO 1518/1523 3000 SHRA BKN012 BKN018TCU
BECMG 1600/1602 32010KT BKN015
TEMPO 1602/1609 BKN010
PROB40
TEMPO 1602/1608 BKN007
Pas de NOTAMs connus pour ce terrain.



MET'MAP, la Météo Aéronautique d'un coup d'oeil ! - Copyright ORBIFLY Décembre 2007 - Disclaimer

ORBIFLY MET'MAP TEAM :

Programmation & Développement : Alexandra Zaïnal
Conception & Développement : Baudouin d'Aumeries
Co-Programmation & Développement : Marc-Olivier Méhu
Soutien technique & logistique : Manuel Goepfert

Contact : metmap@orbifly.com




SOURCES & CREDITS :

   NOAA